sensor_id;sensor_type;location;lat;lon;timestamp;temperature;humidity
73643;DHT22;61938;48.652;9.292;2023-05-02T00:00:27;8.70;99.90
73643;DHT22;61938;48.652;9.292;2023-05-02T00:02:52;8.60;99.90
73643;DHT22;61938;48.652;9.292;2023-05-02T00:05:18;8.50;99.90
73643;DHT22;61938;48.652;9.292;2023-05-02T00:07:43;8.50;99.90
73643;DHT22;61938;48.652;9.292;2023-05-02T00:10:09;8.40;99.90
73643;DHT22;61938;48.652;9.292;2023-05-02T00:12:35;8.40;99.90
73643;DHT22;61938;48.652;9.292;2023-05-02T00:15:00;8.40;99.90
73643;DHT22;61938;48.652;9.292;2023-05-02T00:17:26;8.30;99.90
73643;DHT22;61938;48.652;9.292;2023-05-02T00:19:52;8.30;99.90
73643;DHT22;61938;48.652;9.292;2023-05-02T00:22:17;8.30;99.90
73643;DHT22;61938;48.652;9.292;2023-05-02T00:24:43;8.30;99.90
73643;DHT22;61938;48.652;9.292;2023-05-02T00:27:09;8.30;99.90
73643;DHT22;61938;48.652;9.292;2023-05-02T00:29:34;8.20;99.90
73643;DHT22;61938;48.652;9.292;2023-05-02T00:32:00;8.30;99.90
73643;DHT22;61938;48.652;9.292;2023-05-02T00:34:29;8.20;99.90
73643;DHT22;61938;48.652;9.292;2023-05-02T00:36:55;8.20;99.90
73643;DHT22;61938;48.652;9.292;2023-05-02T00:39:21;8.20;99.90
73643;DHT22;61938;48.652;9.292;2023-05-02T00:41:46;8.20;99.90
73643;DHT22;61938;48.652;9.292;2023-05-02T00:44:12;8.10;99.90
73643;DHT22;61938;48.652;9.292;2023-05-02T00:46:37;8.10;99.90
73643;DHT22;61938;48.652;9.292;2023-05-02T00:49:03;8.00;99.90
73643;DHT22;61938;48.652;9.292;2023-05-02T00:51:29;7.90;99.90
73643;DHT22;61938;48.652;9.292;2023-05-02T00:53:55;7.90;99.90
73643;DHT22;61938;48.652;9.292;2023-05-02T00:56:22;7.80;99.90
73643;DHT22;61938;48.652;9.292;2023-05-02T00:58:47;7.80;99.90
73643;DHT22;61938;48.652;9.292;2023-05-02T01:04:30;7.80;99.90
73643;DHT22;61938;48.652;9.292;2023-05-02T01:07:06;7.90;99.90
73643;DHT22;61938;48.652;9.292;2023-05-02T01:09:42;7.90;99.90
73643;DHT22;61938;48.652;9.292;2023-05-02T01:12:41;7.90;99.90
73643;DHT22;61938;48.652;9.292;2023-05-02T01:15:09;7.80;99.90
73643;DHT22;61938;48.652;9.292;2023-05-02T01:17:37;7.70;99.90
73643;DHT22;61938;48.652;9.292;2023-05-02T01:20:09;7.70;99.90
73643;DHT22;61938;48.652;9.292;2023-05-02T01:22:37;7.70;99.90
73643;DHT22;61938;48.652;9.292;2023-05-02T01:30:55;7.70;99.90
73643;DHT22;61938;48.652;9.292;2023-05-02T01:33:23;7.60;99.90
73643;DHT22;61938;48.652;9.292;2023-05-02T01:35:50;7.60;99.90
73643;DHT22;61938;48.652;9.292;2023-05-02T01:38:18;7.50;99.90
73643;DHT22;61938;48.652;9.292;2023-05-02T01:40:46;7.60;99.90
73643;DHT22;61938;48.652;9.292;2023-05-02T01:43:12;7.60;99.90
73643;DHT22;61938;48.652;9.292;2023-05-02T01:45:38;7.50;99.90
73643;DHT22;61938;48.652;9.292;2023-05-02T01:48:06;7.50;99.90
73643;DHT22;61938;48.652;9.292;2023-05-02T01:50:33;7.50;99.90
73643;DHT22;61938;48.652;9.292;2023-05-02T01:53:01;7.40;99.90
73643;DHT22;61938;48.652;9.292;2023-05-02T01:55:28;7.40;99.90
73643;DHT22;61938;48.652;9.292;2023-05-02T01:57:54;7.40;99.90
73643;DHT22;61938;48.652;9.292;2023-05-02T02:00:21;7.30;99.90
73643;DHT22;61938;48.652;9.292;2023-05-02T02:02:50;7.30;99.90
73643;DHT22;61938;48.652;9.292;2023-05-02T02:05:17;7.30;99.90
73643;DHT22;61938;48.652;9.292;2023-05-02T02:07:44;7.30;99.90
73643;DHT22;61938;48.652;9.292;2023-05-02T02:10:10;7.30;99.90
73643;DHT22;61938;48.652;9.292;2023-05-02T02:12:42;7.30;99.90
73643;DHT22;61938;48.652;9.292;2023-05-02T02:18:12;7.30;99.90
73643;DHT22;61938;48.652;9.292;2023-05-02T02:20:42;7.40;99.90
73643;DHT22;61938;48.652;9.292;2023-05-02T02:23:08;7.50;99.90
73643;DHT22;61938;48.652;9.292;2023-05-02T02:25:35;7.60;99.90
73643;DHT22;61938;48.652;9.292;2023-05-02T02:28:01;7.60;99.90
73643;DHT22;61938;48.652;9.292;2023-05-02T02:30:27;7.70;99.90
73643;DHT22;61938;48.652;9.292;2023-05-02T02:32:52;7.70;99.90
73643;DHT22;61938;48.652;9.292;2023-05-02T02:35:18;7.60;99.90
73643;DHT22;61938;48.652;9.292;2023-05-02T02:38:19;7.60;99.90
73643;DHT22;61938;48.652;9.292;2023-05-02T02:40:54;7.60;99.90
73643;DHT22;61938;48.652;9.292;2023-05-02T02:43:26;7.60;99.90
73643;DHT22;61938;48.652;9.292;2023-05-02T02:49:23;7.50;99.90
73643;DHT22;61938;48.652;9.292;2023-05-02T02:52:04;7.50;99.90
73643;DHT22;61938;48.652;9.292;2023-05-02T02:54:40;7.50;99.90
73643;DHT22;61938;48.652;9.292;2023-05-02T02:57:15;7.50;99.90
73643;DHT22;61938;48.652;9.292;2023-05-02T02:59:48;7.40;99.90
73643;DHT22;61938;48.652;9.292;2023-05-02T03:02:17;7.40;99.90
73643;DHT22;61938;48.652;9.292;2023-05-02T03:04:45;7.30;99.90
73643;DHT22;61938;48.652;9.292;2023-05-02T03:07:11;7.30;99.90
73643;DHT22;61938;48.652;9.292;2023-05-02T03:09:41;7.20;99.90
73643;DHT22;61938;48.652;9.292;2023-05-02T03:12:06;7.20;99.90
73643;DHT22;61938;48.652;9.292;2023-05-02T03:14:32;7.10;99.90
73643;DHT22;61938;48.652;9.292;2023-05-02T03:16:57;7.10;99.90
73643;DHT22;61938;48.652;9.292;2023-05-02T03:19:23;7.10;99.90
73643;DHT22;61938;48.652;9.292;2023-05-02T03:21:48;7.10;99.90
73643;DHT22;61938;48.652;9.292;2023-05-02T03:24:14;7.00;99.90
73643;DHT22;61938;48.652;9.292;2023-05-02T03:26:41;6.90;99.90
73643;DHT22;61938;48.652;9.292;2023-05-02T03:29:06;6.90;99.90
73643;DHT22;61938;48.652;9.292;2023-05-02T03:31:32;6.90;99.90
73643;DHT22;61938;48.652;9.292;2023-05-02T03:33:57;6.90;99.90
73643;DHT22;61938;48.652;9.292;2023-05-02T03:36:23;6.80;99.90
73643;DHT22;61938;48.652;9.292;2023-05-02T03:38:48;6.90;99.90
73643;DHT22;61938;48.652;9.292;2023-05-02T03:41:14;6.90;99.90
73643;DHT22;61938;48.652;9.292;2023-05-02T03:43:39;6.90;99.90
73643;DHT22;61938;48.652;9.292;2023-05-02T03:46:06;6.90;99.90
73643;DHT22;61938;48.652;9.292;2023-05-02T03:48:33;6.90;99.90
73643;DHT22;61938;48.652;9.292;2023-05-02T03:51:00;7.00;99.90
73643;DHT22;61938;48.652;9.292;2023-05-02T03:53:25;7.00;99.90
73643;DHT22;61938;48.652;9.292;2023-05-02T03:55:51;7.10;99.90
73643;DHT22;61938;48.652;9.292;2023-05-02T03:58:16;7.10;99.90
73643;DHT22;61938;48.652;9.292;2023-05-02T04:00:42;7.10;99.90
73643;DHT22;61938;48.652;9.292;2023-05-02T04:03:07;7.20;99.90
73643;DHT22;61938;48.652;9.292;2023-05-02T04:05:33;7.20;99.90
73643;DHT22;61938;48.652;9.292;2023-05-02T04:07:59;7.30;99.90
73643;DHT22;61938;48.652;9.292;2023-05-02T04:10:25;7.30;99.90
73643;DHT22;61938;48.652;9.292;2023-05-02T04:12:50;7.30;99.90
73643;DHT22;61938;48.652;9.292;2023-05-02T04:15:16;7.30;99.90
73643;DHT22;61938;48.652;9.292;2023-05-02T04:17:41;7.30;99.90
73643;DHT22;61938;48.652;9.292;2023-05-02T04:20:07;7.30;99.90
73643;DHT22;61938;48.652;9.292;2023-05-02T04:22:33;7.40;99.90
73643;DHT22;61938;48.652;9.292;2023-05-02T04:24:59;7.40;99.90
73643;DHT22;61938;48.652;9.292;2023-05-02T04:27:25;7.40;99.90
73643;DHT22;61938;48.652;9.292;2023-05-02T04:29:51;7.40;99.90
73643;DHT22;61938;48.652;9.292;2023-05-02T04:32:17;7.40;99.90
73643;DHT22;61938;48.652;9.292;2023-05-02T04:34:43;7.40;99.90
73643;DHT22;61938;48.652;9.292;2023-05-02T04:37:08;7.50;99.90
73643;DHT22;61938;48.652;9.292;2023-05-02T04:39:34;7.50;99.90
73643;DHT22;61938;48.652;9.292;2023-05-02T04:41:59;7.50;99.90
73643;DHT22;61938;48.652;9.292;2023-05-02T04:44:25;7.50;99.90
73643;DHT22;61938;48.652;9.292;2023-05-02T04:46:51;7.50;99.90
73643;DHT22;61938;48.652;9.292;2023-05-02T04:49:16;7.60;99.90
73643;DHT22;61938;48.652;9.292;2023-05-02T04:51:43;7.60;99.90
73643;DHT22;61938;48.652;9.292;2023-05-02T04:54:09;7.70;99.90
73643;DHT22;61938;48.652;9.292;2023-05-02T04:56:35;7.60;99.90
73643;DHT22;61938;48.652;9.292;2023-05-02T04:59:00;7.70;99.90
73643;DHT22;61938;48.652;9.292;2023-05-02T05:01:26;7.70;99.90
73643;DHT22;61938;48.652;9.292;2023-05-02T05:03:54;7.80;99.90
73643;DHT22;61938;48.652;9.292;2023-05-02T05:06:20;7.80;99.90
73643;DHT22;61938;48.652;9.292;2023-05-02T05:08:46;7.80;99.90
73643;DHT22;61938;48.652;9.292;2023-05-02T05:11:12;7.80;99.90
73643;DHT22;61938;48.652;9.292;2023-05-02T05:13:38;7.90;99.90
73643;DHT22;61938;48.652;9.292;2023-05-02T05:16:04;7.90;99.90
73643;DHT22;61938;48.652;9.292;2023-05-02T05:18:30;7.90;99.90
73643;DHT22;61938;48.652;9.292;2023-05-02T05:20:56;8.00;99.90
73643;DHT22;61938;48.652;9.292;2023-05-02T05:23:21;8.10;99.90
73643;DHT22;61938;48.652;9.292;2023-05-02T05:25:47;8.20;99.90
73643;DHT22;61938;48.652;9.292;2023-05-02T05:28:12;8.30;99.90
73643;DHT22;61938;48.652;9.292;2023-05-02T05:30:38;8.30;99.90
73643;DHT22;61938;48.652;9.292;2023-05-02T05:33:04;8.40;99.90
73643;DHT22;61938;48.652;9.292;2023-05-02T05:35:29;8.50;99.90
73643;DHT22;61938;48.652;9.292;2023-05-02T05:37:57;8.40;99.90
73643;DHT22;61938;48.652;9.292;2023-05-02T05:40:22;8.50;99.90
73643;DHT22;61938;48.652;9.292;2023-05-02T05:42:47;8.80;99.90
73643;DHT22;61938;48.652;9.292;2023-05-02T05:45:13;8.50;99.90
73643;DHT22;61938;48.652;9.292;2023-05-02T05:47:40;8.50;99.90
73643;DHT22;61938;48.652;9.292;2023-05-02T05:50:06;8.60;99.90
73643;DHT22;61938;48.652;9.292;2023-05-02T05:52:32;8.60;99.90
73643;DHT22;61938;48.652;9.292;2023-05-02T05:54:57;8.60;99.90
73643;DHT22;61938;48.652;9.292;2023-05-02T05:57:23;8.60;99.90
73643;DHT22;61938;48.652;9.292;2023-05-02T05:59:49;8.60;99.90
73643;DHT22;61938;48.652;9.292;2023-05-02T06:02:15;8.70;99.90
73643;DHT22;61938;48.652;9.292;2023-05-02T06:04:40;8.70;99.90
73643;DHT22;61938;48.652;9.292;2023-05-02T06:07:06;8.80;99.90
73643;DHT22;61938;48.652;9.292;2023-05-02T06:09:32;8.80;99.90
73643;DHT22;61938;48.652;9.292;2023-05-02T06:11:57;8.90;99.90
73643;DHT22;61938;48.652;9.292;2023-05-02T06:14:23;9.00;99.90
73643;DHT22;61938;48.652;9.292;2023-05-02T06:16:48;9.30;99.90
73643;DHT22;61938;48.652;9.292;2023-05-02T06:19:14;9.20;99.90
73643;DHT22;61938;48.652;9.292;2023-05-02T06:21:39;9.20;99.90
73643;DHT22;61938;48.652;9.292;2023-05-02T06:24:05;9.40;99.90
73643;DHT22;61938;48.652;9.292;2023-05-02T06:26:31;9.50;99.90
73643;DHT22;61938;48.652;9.292;2023-05-02T06:28:56;9.60;99.90
73643;DHT22;61938;48.652;9.292;2023-05-02T06:31:22;9.70;99.90
73643;DHT22;61938;48.652;9.292;2023-05-02T06:33:47;9.80;99.90
73643;DHT22;61938;48.652;9.292;2023-05-02T06:36:13;9.80;99.90
73643;DHT22;61938;48.652;9.292;2023-05-02T06:38:38;9.90;99.90
73643;DHT22;61938;48.652;9.292;2023-05-02T06:41:04;10.00;99.90
73643;DHT22;61938;48.652;9.292;2023-05-02T06:43:29;10.00;99.90
73643;DHT22;61938;48.652;9.292;2023-05-02T06:45:55;10.00;99.90
73643;DHT22;61938;48.652;9.292;2023-05-02T06:48:21;10.00;99.90
73643;DHT22;61938;48.652;9.292;2023-05-02T06:50:48;10.00;99.90
73643;DHT22;61938;48.652;9.292;2023-05-02T06:53:13;9.90;99.90
73643;DHT22;61938;48.652;9.292;2023-05-02T06:55:39;9.90;99.90
73643;DHT22;61938;48.652;9.292;2023-05-02T06:58:05;10.00;99.90
73643;DHT22;61938;48.652;9.292;2023-05-02T07:00:30;10.00;99.90
73643;DHT22;61938;48.652;9.292;2023-05-02T07:02:56;9.90;99.90
73643;DHT22;61938;48.652;9.292;2023-05-02T07:05:22;10.00;99.90
73643;DHT22;61938;48.652;9.292;2023-05-02T07:07:47;10.00;99.90
73643;DHT22;61938;48.652;9.292;2023-05-02T07:10:13;10.00;99.90
73643;DHT22;61938;48.652;9.292;2023-05-02T07:12:38;10.00;99.90
73643;DHT22;61938;48.652;9.292;2023-05-02T07:15:05;10.10;99.90
73643;DHT22;61938;48.652;9.292;2023-05-02T07:17:31;10.10;99.90
73643;DHT22;61938;48.652;9.292;2023-05-02T07:19:56;10.10;99.90
73643;DHT22;61938;48.652;9.292;2023-05-02T07:22:22;10.20;99.90
73643;DHT22;61938;48.652;9.292;2023-05-02T07:24:47;10.20;99.90
73643;DHT22;61938;48.652;9.292;2023-05-02T07:27:13;10.30;99.90
73643;DHT22;61938;48.652;9.292;2023-05-02T07:29:39;10.30;99.90
73643;DHT22;61938;48.652;9.292;2023-05-02T07:32:06;10.40;99.90
73643;DHT22;61938;48.652;9.292;2023-05-02T07:34:32;10.40;99.90
73643;DHT22;61938;48.652;9.292;2023-05-02T07:36:58;10.50;99.90
73643;DHT22;61938;48.652;9.292;2023-05-02T07:39:24;10.50;99.90
73643;DHT22;61938;48.652;9.292;2023-05-02T07:41:51;10.60;99.90
73643;DHT22;61938;48.652;9.292;2023-05-02T07:44:17;10.70;99.90
73643;DHT22;61938;48.652;9.292;2023-05-02T07:46:42;10.70;99.90
73643;DHT22;61938;48.652;9.292;2023-05-02T07:49:08;10.80;99.90
73643;DHT22;61938;48.652;9.292;2023-05-02T07:51:33;10.90;99.90
73643;DHT22;61938;48.652;9.292;2023-05-02T07:53:59;10.80;99.90
73643;DHT22;61938;48.652;9.292;2023-05-02T07:56:25;10.90;99.90
73643;DHT22;61938;48.652;9.292;2023-05-02T07:58:51;11.00;99.90
73643;DHT22;61938;48.652;9.292;2023-05-02T08:01:17;11.10;99.90
73643;DHT22;61938;48.652;9.292;2023-05-02T08:03:44;11.10;99.90
73643;DHT22;61938;48.652;9.292;2023-05-02T08:06:10;11.10;99.90
73643;DHT22;61938;48.652;9.292;2023-05-02T08:08:36;11.20;99.90
73643;DHT22;61938;48.652;9.292;2023-05-02T08:11:02;11.40;99.90
73643;DHT22;61938;48.652;9.292;2023-05-02T08:13:28;11.50;99.90
73643;DHT22;61938;48.652;9.292;2023-05-02T08:15:53;11.50;99.90
73643;DHT22;61938;48.652;9.292;2023-05-02T08:18:25;11.60;99.90
73643;DHT22;61938;48.652;9.292;2023-05-02T08:20:50;11.60;99.90
73643;DHT22;61938;48.652;9.292;2023-05-02T08:23:17;11.60;99.90
73643;DHT22;61938;48.652;9.292;2023-05-02T08:25:42;11.60;99.90
73643;DHT22;61938;48.652;9.292;2023-05-02T08:28:08;11.60;99.90
73643;DHT22;61938;48.652;9.292;2023-05-02T08:30:34;11.70;99.90
73643;DHT22;61938;48.652;9.292;2023-05-02T08:32:59;11.80;99.90
73643;DHT22;61938;48.652;9.292;2023-05-02T08:35:25;11.90;99.90
73643;DHT22;61938;48.652;9.292;2023-05-02T08:37:52;11.90;99.90
73643;DHT22;61938;48.652;9.292;2023-05-02T08:40:19;11.90;99.90
73643;DHT22;61938;48.652;9.292;2023-05-02T08:42:46;11.90;99.90
73643;DHT22;61938;48.652;9.292;2023-05-02T08:45:12;11.90;99.90
73643;DHT22;61938;48.652;9.292;2023-05-02T08:47:41;11.90;99.90
73643;DHT22;61938;48.652;9.292;2023-05-02T08:50:10;12.00;99.90
73643;DHT22;61938;48.652;9.292;2023-05-02T08:52:37;12.10;99.90
73643;DHT22;61938;48.652;9.292;2023-05-02T08:55:04;12.30;99.90
73643;DHT22;61938;48.652;9.292;2023-05-02T08:57:30;12.30;99.90
73643;DHT22;61938;48.652;9.292;2023-05-02T08:59:56;12.40;99.90
73643;DHT22;61938;48.652;9.292;2023-05-02T09:02:50;12.50;99.90
73643;DHT22;61938;48.652;9.292;2023-05-02T09:05:19;12.70;99.90
73643;DHT22;61938;48.652;9.292;2023-05-02T09:07:48;12.90;99.90
73643;DHT22;61938;48.652;9.292;2023-05-02T09:10:14;13.00;99.90
73643;DHT22;61938;48.652;9.292;2023-05-02T09:12:40;13.10;99.90
73643;DHT22;61938;48.652;9.292;2023-05-02T09:15:13;13.30;99.90
73643;DHT22;61938;48.652;9.292;2023-05-02T09:17:45;13.30;99.90
73643;DHT22;61938;48.652;9.292;2023-05-02T09:20:15;13.50;99.90
73643;DHT22;61938;48.652;9.292;2023-05-02T09:22:48;13.50;99.90
73643;DHT22;61938;48.652;9.292;2023-05-02T09:25:15;13.80;99.90
73643;DHT22;61938;48.652;9.292;2023-05-02T09:27:59;14.00;99.90
73643;DHT22;61938;48.652;9.292;2023-05-02T09:30:27;14.10;99.90
73643;DHT22;61938;48.652;9.292;2023-05-02T09:32:52;14.30;99.90
73643;DHT22;61938;48.652;9.292;2023-05-02T09:35:20;14.40;99.90
73643;DHT22;61938;48.652;9.292;2023-05-02T09:37:50;14.50;99.90
73643;DHT22;61938;48.652;9.292;2023-05-02T09:40:16;14.50;99.90
73643;DHT22;61938;48.652;9.292;2023-05-02T09:42:41;14.50;99.90
73643;DHT22;61938;48.652;9.292;2023-05-02T09:45:07;14.70;99.90
73643;DHT22;61938;48.652;9.292;2023-05-02T09:47:33;14.80;99.90
73643;DHT22;61938;48.652;9.292;2023-05-02T09:50:00;14.90;99.90
73643;DHT22;61938;48.652;9.292;2023-05-02T09:52:26;14.80;99.90
73643;DHT22;61938;48.652;9.292;2023-05-02T09:54:51;14.80;99.90
73643;DHT22;61938;48.652;9.292;2023-05-02T09:57:18;15.10;99.90
73643;DHT22;61938;48.652;9.292;2023-05-02T09:59:56;15.10;99.90
73643;DHT22;61938;48.652;9.292;2023-05-02T10:02:23;14.90;99.90
73643;DHT22;61938;48.652;9.292;2023-05-02T10:04:50;14.80;99.90
73643;DHT22;61938;48.652;9.292;2023-05-02T10:07:18;14.70;99.90
73643;DHT22;61938;48.652;9.292;2023-05-02T10:09:45;14.80;99.90
73643;DHT22;61938;48.652;9.292;2023-05-02T10:12:14;15.20;99.90
73643;DHT22;61938;48.652;9.292;2023-05-02T10:14:40;15.60;99.90
73643;DHT22;61938;48.652;9.292;2023-05-02T10:17:12;15.50;99.90
73643;DHT22;61938;48.652;9.292;2023-05-02T10:19:47;15.80;99.90
73643;DHT22;61938;48.652;9.292;2023-05-02T10:22:18;16.00;99.90
73643;DHT22;61938;48.652;9.292;2023-05-02T10:24:46;15.90;99.90
73643;DHT22;61938;48.652;9.292;2023-05-02T10:27:13;16.20;99.90
73643;DHT22;61938;48.652;9.292;2023-05-02T10:29:39;16.50;99.90
73643;DHT22;61938;48.652;9.292;2023-05-02T10:32:07;17.00;99.90
73643;DHT22;61938;48.652;9.292;2023-05-02T10:34:34;17.00;99.90
73643;DHT22;61938;48.652;9.292;2023-05-02T10:37:00;17.20;99.90
73643;DHT22;61938;48.652;9.292;2023-05-02T10:39:27;17.50;99.90
73643;DHT22;61938;48.652;9.292;2023-05-02T10:41:55;18.00;99.90
73643;DHT22;61938;48.652;9.292;2023-05-02T10:44:41;18.30;99.90
73643;DHT22;61938;48.652;9.292;2023-05-02T10:47:23;18.20;99.90
73643;DHT22;61938;48.652;9.292;2023-05-02T10:49:56;18.10;99.90
73643;DHT22;61938;48.652;9.292;2023-05-02T10:55:16;17.20;99.90
73643;DHT22;61938;48.652;9.292;2023-05-02T11:00:29;16.80;99.90
73643;DHT22;61938;48.652;9.292;2023-05-02T11:02:54;16.70;99.90
73643;DHT22;61938;48.652;9.292;2023-05-02T11:05:24;16.60;99.90
73643;DHT22;61938;48.652;9.292;2023-05-02T11:10:45;17.00;99.90
73643;DHT22;61938;48.652;9.292;2023-05-02T11:13:10;17.30;99.90
73643;DHT22;61938;48.652;9.292;2023-05-02T11:18:06;18.10;99.90
73643;DHT22;61938;48.652;9.292;2023-05-02T11:20:38;18.30;99.90
73643;DHT22;61938;48.652;9.292;2023-05-02T11:26:19;18.60;99.90
73643;DHT22;61938;48.652;9.292;2023-05-02T11:28:46;18.20;99.90
73643;DHT22;61938;48.652;9.292;2023-05-02T11:33:57;17.60;99.90
73643;DHT22;61938;48.652;9.292;2023-05-02T11:36:29;17.90;99.90
73643;DHT22;61938;48.652;9.292;2023-05-02T11:38:58;18.30;99.90
73643;DHT22;61938;48.652;9.292;2023-05-02T11:41:38;18.70;99.90
73643;DHT22;61938;48.652;9.292;2023-05-02T11:44:04;19.00;99.90
73643;DHT22;61938;48.652;9.292;2023-05-02T11:46:29;19.20;99.90
73643;DHT22;61938;48.652;9.292;2023-05-02T11:48:55;19.40;99.90
73643;DHT22;61938;48.652;9.292;2023-05-02T11:51:24;19.60;99.90
73643;DHT22;61938;48.652;9.292;2023-05-02T11:53:51;20.00;99.90
73643;DHT22;61938;48.652;9.292;2023-05-02T11:56:22;20.00;99.90
73643;DHT22;61938;48.652;9.292;2023-05-02T11:59:00;19.50;99.90
73643;DHT22;61938;48.652;9.292;2023-05-02T12:01:26;19.10;99.90
73643;DHT22;61938;48.652;9.292;2023-05-02T12:04:05;18.80;99.90
73643;DHT22;61938;48.652;9.292;2023-05-02T12:06:32;18.40;99.90
73643;DHT22;61938;48.652;9.292;2023-05-02T12:09:13;18.20;99.90
73643;DHT22;61938;48.652;9.292;2023-05-02T12:11:41;18.00;99.90
73643;DHT22;61938;48.652;9.292;2023-05-02T12:14:08;18.10;99.90
73643;DHT22;61938;48.652;9.292;2023-05-02T12:16:33;18.60;99.90
73643;DHT22;61938;48.652;9.292;2023-05-02T12:18:59;19.20;99.90
73643;DHT22;61938;48.652;9.292;2023-05-02T12:21:28;19.50;99.90
73643;DHT22;61938;48.652;9.292;2023-05-02T12:23:55;19.60;99.90
73643;DHT22;61938;48.652;9.292;2023-05-02T12:26:22;19.70;99.90
73643;DHT22;61938;48.652;9.292;2023-05-02T12:28:56;19.60;99.90
73643;DHT22;61938;48.652;9.292;2023-05-02T12:31:23;19.70;99.90
73643;DHT22;61938;48.652;9.292;2023-05-02T12:33:49;19.40;99.90
73643;DHT22;61938;48.652;9.292;2023-05-02T12:36:17;18.90;99.90
73643;DHT22;61938;48.652;9.292;2023-05-02T12:38:52;19.00;99.90
73643;DHT22;61938;48.652;9.292;2023-05-02T12:41:32;19.30;99.90
73643;DHT22;61938;48.652;9.292;2023-05-02T12:43:58;19.50;99.90
73643;DHT22;61938;48.652;9.292;2023-05-02T12:46:24;19.80;99.90
73643;DHT22;61938;48.652;9.292;2023-05-02T12:49:08;19.80;99.90
73643;DHT22;61938;48.652;9.292;2023-05-02T12:51:37;20.10;99.90
73643;DHT22;61938;48.652;9.292;2023-05-02T12:54:03;20.30;99.90
73643;DHT22;61938;48.652;9.292;2023-05-02T12:56:29;20.50;99.90
73643;DHT22;61938;48.652;9.292;2023-05-02T12:58:58;20.70;99.90
73643;DHT22;61938;48.652;9.292;2023-05-02T13:01:26;20.50;99.90
73643;DHT22;61938;48.652;9.292;2023-05-02T13:03:52;20.60;99.90
73643;DHT22;61938;48.652;9.292;2023-05-02T13:06:18;20.50;99.90
73643;DHT22;61938;48.652;9.292;2023-05-02T13:08:43;20.00;99.90
73643;DHT22;61938;48.652;9.292;2023-05-02T13:11:09;19.80;99.90
73643;DHT22;61938;48.652;9.292;2023-05-02T13:13:34;19.40;99.90
73643;DHT22;61938;48.652;9.292;2023-05-02T13:16:00;19.10;99.90
73643;DHT22;61938;48.652;9.292;2023-05-02T13:18:26;19.00;99.90
73643;DHT22;61938;48.652;9.292;2023-05-02T13:20:52;18.90;99.90
73643;DHT22;61938;48.652;9.292;2023-05-02T13:23:18;18.80;99.90
73643;DHT22;61938;48.652;9.292;2023-05-02T13:25:43;18.70;99.90
73643;DHT22;61938;48.652;9.292;2023-05-02T13:28:09;18.70;99.90
73643;DHT22;61938;48.652;9.292;2023-05-02T13:30:34;18.50;99.90
73643;DHT22;61938;48.652;9.292;2023-05-02T13:33:00;18.30;99.90
73643;DHT22;61938;48.652;9.292;2023-05-02T13:35:26;18.00;99.90
73643;DHT22;61938;48.652;9.292;2023-05-02T13:37:51;17.90;99.90
73643;DHT22;61938;48.652;9.292;2023-05-02T13:40:17;18.00;99.90
73643;DHT22;61938;48.652;9.292;2023-05-02T13:42:42;18.10;99.90
73643;DHT22;61938;48.652;9.292;2023-05-02T13:45:08;18.10;99.90
73643;DHT22;61938;48.652;9.292;2023-05-02T13:47:34;18.30;99.90
73643;DHT22;61938;48.652;9.292;2023-05-02T13:49:59;18.50;99.90
73643;DHT22;61938;48.652;9.292;2023-05-02T13:52:25;18.80;99.90
73643;DHT22;61938;48.652;9.292;2023-05-02T13:54:50;18.90;99.90
73643;DHT22;61938;48.652;9.292;2023-05-02T13:57:16;19.10;99.90
73643;DHT22;61938;48.652;9.292;2023-05-02T13:59:41;19.00;99.90
73643;DHT22;61938;48.652;9.292;2023-05-02T14:02:07;18.90;99.90
73643;DHT22;61938;48.652;9.292;2023-05-02T14:04:32;18.70;99.90
73643;DHT22;61938;48.652;9.292;2023-05-02T14:06:58;18.70;99.90
73643;DHT22;61938;48.652;9.292;2023-05-02T14:09:23;18.70;99.90
73643;DHT22;61938;48.652;9.292;2023-05-02T14:11:49;18.60;99.90
73643;DHT22;61938;48.652;9.292;2023-05-02T14:14:15;18.70;99.90
73643;DHT22;61938;48.652;9.292;2023-05-02T14:16:41;18.80;99.90
73643;DHT22;61938;48.652;9.292;2023-05-02T14:19:07;18.80;99.90
73643;DHT22;61938;48.652;9.292;2023-05-02T14:21:32;18.80;99.90
73643;DHT22;61938;48.652;9.292;2023-05-02T14:23:58;18.80;99.90
73643;DHT22;61938;48.652;9.292;2023-05-02T14:26:24;18.70;99.90
73643;DHT22;61938;48.652;9.292;2023-05-02T14:28:50;18.40;99.90
73643;DHT22;61938;48.652;9.292;2023-05-02T14:31:16;18.10;99.90
73643;DHT22;61938;48.652;9.292;2023-05-02T14:33:41;18.10;99.90
73643;DHT22;61938;48.652;9.292;2023-05-02T14:36:07;18.10;99.90
73643;DHT22;61938;48.652;9.292;2023-05-02T14:38:32;17.80;99.90
73643;DHT22;61938;48.652;9.292;2023-05-02T14:40:58;17.50;99.90
73643;DHT22;61938;48.652;9.292;2023-05-02T14:43:23;17.40;99.90
73643;DHT22;61938;48.652;9.292;2023-05-02T14:45:49;17.20;99.90
73643;DHT22;61938;48.652;9.292;2023-05-02T14:48:14;17.10;99.90
73643;DHT22;61938;48.652;9.292;2023-05-02T14:50:42;17.20;99.90
73643;DHT22;61938;48.652;9.292;2023-05-02T14:53:07;17.30;99.90
73643;DHT22;61938;48.652;9.292;2023-05-02T14:55:39;17.50;99.90
73643;DHT22;61938;48.652;9.292;2023-05-02T14:58:05;17.70;99.90
73643;DHT22;61938;48.652;9.292;2023-05-02T15:00:33;17.90;99.90
73643;DHT22;61938;48.652;9.292;2023-05-02T15:03:03;18.10;99.90
73643;DHT22;61938;48.652;9.292;2023-05-02T15:05:29;17.80;99.90
73643;DHT22;61938;48.652;9.292;2023-05-02T15:07:54;17.70;99.90
73643;DHT22;61938;48.652;9.292;2023-05-02T15:10:20;17.70;99.90
73643;DHT22;61938;48.652;9.292;2023-05-02T15:12:45;17.60;99.90
73643;DHT22;61938;48.652;9.292;2023-05-02T15:15:15;17.50;99.90
73643;DHT22;61938;48.652;9.292;2023-05-02T15:17:41;17.50;99.90
73643;DHT22;61938;48.652;9.292;2023-05-02T15:20:07;17.50;99.90
73643;DHT22;61938;48.652;9.292;2023-05-02T15:22:32;17.50;99.90
73643;DHT22;61938;48.652;9.292;2023-05-02T15:24:58;17.60;99.90
73643;DHT22;61938;48.652;9.292;2023-05-02T15:27:23;17.30;99.90
73643;DHT22;61938;48.652;9.292;2023-05-02T15:29:49;17.20;99.90
73643;DHT22;61938;48.652;9.292;2023-05-02T15:32:14;17.10;99.90
73643;DHT22;61938;48.652;9.292;2023-05-02T15:34:40;17.00;99.90
73643;DHT22;61938;48.652;9.292;2023-05-02T15:37:05;16.90;99.90
73643;DHT22;61938;48.652;9.292;2023-05-02T15:39:32;16.80;99.90
73643;DHT22;61938;48.652;9.292;2023-05-02T15:42:00;16.70;99.90
73643;DHT22;61938;48.652;9.292;2023-05-02T15:44:28;16.60;99.90
73643;DHT22;61938;48.652;9.292;2023-05-02T15:46:53;16.60;99.90
73643;DHT22;61938;48.652;9.292;2023-05-02T15:49:20;16.50;99.90
73643;DHT22;61938;48.652;9.292;2023-05-02T15:51:46;16.50;99.90
73643;DHT22;61938;48.652;9.292;2023-05-02T15:54:11;16.50;99.90
73643;DHT22;61938;48.652;9.292;2023-05-02T15:56:37;16.60;99.90
73643;DHT22;61938;48.652;9.292;2023-05-02T15:59:02;16.60;99.90
73643;DHT22;61938;48.652;9.292;2023-05-02T16:01:28;16.70;99.90
73643;DHT22;61938;48.652;9.292;2023-05-02T16:03:53;16.80;99.90
73643;DHT22;61938;48.652;9.292;2023-05-02T16:06:19;16.90;99.90
73643;DHT22;61938;48.652;9.292;2023-05-02T16:08:44;17.00;99.90